Time;durP1;ratioP1;P1;durP2;ratioP2;P2;SDS_P1;SDS_P2;PMS_P1;PMS_P2;Temp;Humidity;BMP_temperature;BMP_pressure;BME280_temperature;BME280_humidity;BME280_pressure;Samples;Min_cycle;Max_cycle;Signal;HPM_P1;HPM_P2
2021/01/25 00:00:13;;;;;;;;;;;;;;;5.76;86.22;99114.61;1700821;84;20238;-73
2021/01/25 00:02:42;;;;;;;;;;;;;;;5.76;86.22;99104.13;1632466;87;20230;-73
2021/01/25 00:05:11;;;;;;;;;;;;;;;5.75;86.24;99091.98;1631312;87;20545;-73
2021/01/25 00:07:39;;;;;;;;;;;;;;;5.73;86.24;99077.70;1656802;85;20271;-73
2021/01/25 00:10:09;;;;;;;;;;;;;;;5.72;86.23;99078.66;1667431;86;20684;-73
2021/01/25 00:12:37;;;;;;;;;;;;;;;5.71;86.24;99075.70;1667217;86;20400;-73
2021/01/25 00:15:06;;;;;;;;;;;;;;;5.70;86.26;99081.06;1665699;86;20527;-73
2021/01/25 00:17:35;;;;;;;;;;;;;;;5.68;86.27;99089.02;1662391;86;20232;-73
2021/01/25 00:20:04;;;;;;;;;;;;;;;5.64;86.30;99078.92;1680714;84;20227;-73
2021/01/25 00:22:32;;;;;;;;;;;;;;;5.62;86.33;99075.12;1664327;86;21966;-73
2021/01/25 00:25:00;;;;;;;;;;;;;;;5.61;86.38;99072.14;1687543;84;21255;-73
2021/01/25 00:27:27;;;;;;;;;;;;;;;5.60;86.41;99065.72;1665472;86;20219;-72
2021/01/25 00:29:55;;;;;;;;;;;;;;;5.59;86.47;99064.03;1666005;85;20324;-72
2021/01/25 00:32:22;;;;;;;;;;;;;;;5.57;86.48;99069.39;1664080;86;20232;-73
2021/01/25 00:34:50;;;;;;;;;;;;;;;5.58;86.53;99068.92;1679843;84;21381;-73
2021/01/25 00:37:17;;;;;;;;;;;;;;;5.58;86.55;99071.53;1687335;84;20265;-73
2021/01/25 00:39:45;;;;;;;;;;;;;;;5.58;86.57;99067.61;1690770;83;20233;-71
2021/01/25 00:42:12;;;;;;;;;;;;;;;5.57;86.59;99064.16;1692244;84;21451;-71
2021/01/25 00:44:40;;;;;;;;;;;;;;;5.57;86.59;99064.16;1673960;84;20245;-71
2021/01/25 00:47:07;;;;;;;;;;;;;;;5.56;86.62;99059.88;1691074;83;21924;-70
2021/01/25 00:49:35;;;;;;;;;;;;;;;5.56;86.65;99058.56;1689408;84;20364;-71
2021/01/25 00:52:02;;;;;;;;;;;;;;;5.57;86.64;99064.16;1690364;84;20515;-71
2021/01/25 00:54:30;;;;;;;;;;;;;;;5.57;86.66;99062.84;1691479;84;20475;-71
2021/01/25 00:56:57;;;;;;;;;;;;;;;5.57;86.67;99068.09;1690485;84;20250;-71
2021/01/25 00:59:25;;;;;;;;;;;;;;;5.56;86.69;99063.80;1690121;83;21915;-72
2021/01/25 01:01:52;;;;;;;;;;;;;;;5.56;86.67;99066.42;1692518;84;20317;-71
2021/01/25 01:04:21;;;;;;;;;;;;;;;5.57;86.69;99071.19;1691846;84;20230;-71
2021/01/25 01:06:48;;;;;;;;;;;;;;;5.59;86.69;99074.51;1693803;84;20487;-71
2021/01/25 01:09:16;;;;;;;;;;;;;;;5.59;86.71;99074.03;1693055;84;20238;-71
2021/01/25 01:11:44;;;;;;;;;;;;;;;5.60;86.71;99074.41;1692696;84;24242;-71
2021/01/25 01:14:11;;;;;;;;;;;;;;;5.61;86.70;99064.77;1691659;84;20234;-71
2021/01/25 01:16:39;;;;;;;;;;;;;;;5.62;86.69;99069.88;1692024;84;20246;-71
2021/01/25 01:19:06;;;;;;;;;;;;;;;5.62;86.69;99065.95;1692760;84;20496;-71
2021/01/25 01:21:34;;;;;;;;;;;;;;;5.64;86.68;99054.86;1691685;84;20267;-71
2021/01/25 01:24:03;;;;;;;;;;;;;;;5.64;86.68;99061.89;1692771;84;21905;-71
2021/01/25 01:26:31;;;;;;;;;;;;;;;5.63;86.71;99067.61;1693754;84;20251;-71
2021/01/25 01:28:58;;;;;;;;;;;;;;;5.65;86.73;99068.80;1686975;83;20202;-71
2021/01/25 01:31:25;;;;;;;;;;;;;;;5.64;86.72;99072.38;1693192;84;20464;-71
2021/01/25 01:33:53;;;;;;;;;;;;;;;5.65;86.77;99064.39;1692707;83;20249;-71
2021/01/25 01:36:21;;;;;;;;;;;;;;;5.66;86.79;99066.52;1685540;84;21383;-71
2021/01/25 01:38:48;;;;;;;;;;;;;;;5.67;86.84;99062.95;1694080;84;20491;-71
2021/01/25 01:41:15;;;;;;;;;;;;;;;5.67;86.87;99061.64;1671230;84;20269;-71
2021/01/25 01:43:42;;;;;;;;;;;;;;;5.68;86.91;99076.39;1696724;84;20750;-71
2021/01/25 01:46:10;;;;;;;;;;;;;;;5.66;86.97;99071.28;1696356;84;20220;-71
2021/01/25 01:48:37;;;;;;;;;;;;;;;5.66;87.00;99071.77;1691148;84;22090;-71
2021/01/25 01:51:05;;;;;;;;;;;;;;;5.66;87.02;99079.63;1648285;85;20406;-72
2021/01/25 01:53:32;;;;;;;;;;;;;;;5.66;87.04;99079.14;1687614;84;20221;-72
2021/01/25 01:55:59;;;;;;;;;;;;;;;5.65;87.09;99085.34;1689787;84;22930;-71
2021/01/25 01:58:27;;;;;;;;;;;;;;;5.65;87.09;99082.72;1653084;85;20791;-71
2021/01/25 02:00:56;;;;;;;;;;;;;;;5.65;87.14;99082.72;1696118;84;22063;-71
2021/01/25 02:03:24;;;;;;;;;;;;;;;5.65;87.18;99087.95;1694991;84;20300;-71
2021/01/25 02:05:53;;;;;;;;;;;;;;;5.66;87.17;99092.23;1695437;84;20499;-71
2021/01/25 02:08:21;;;;;;;;;;;;;;;5.65;87.24;99090.58;1694109;83;20475;-71
2021/01/25 02:10:49;;;;;;;;;;;;;;;5.65;87.24;99093.20;1696371;84;20269;-71
2021/01/25 02:13:17;;;;;;;;;;;;;;;5.67;87.29;99098.31;1687758;84;22124;-71
2021/01/25 02:15:44;;;;;;;;;;;;;;;5.67;87.31;99102.24;1673969;85;20389;-71
2021/01/25 02:18:12;;;;;;;;;;;;;;;5.68;87.33;99098.66;1676696;84;20418;-71
2021/01/25 02:20:44;;;;;;;;;;;;;;;5.70;87.36;99102.85;1656146;85;21580;-71
2021/01/25 02:23:21;;;;;;;;;;;;;;;5.70;87.38;99104.16;1692762;84;20669;-71
2021/01/25 02:26:25;;;;;;;;;;;;;;;5.69;87.38;99093.33;1696499;84;22788;-72
2021/01/25 02:28:53;;;;;;;;;;;;;;;5.69;87.39;99107.73;1692109;83;20232;-73
2021/01/25 02:31:20;;;;;;;;;;;;;;;5.69;87.42;99105.12;1696372;84;20233;-73
2021/01/25 02:33:51;;;;;;;;;;;;;;;5.69;87.43;99101.19;1695129;84;20538;-73
2021/01/25 02:36:18;;;;;;;;;;;;;;;5.68;87.42;99096.88;1693528;84;20563;-73
2021/01/25 02:38:48;;;;;;;;;;;;;;;5.68;87.46;99096.05;1685730;84;21929;-73
2021/01/25 02:41:18;;;;;;;;;;;;;;;5.70;87.47;99102.85;1693824;84;20431;-70
2021/01/25 02:43:48;;;;;;;;;;;;;;;5.71;87.54;99108.44;1693858;84;20222;-71
2021/01/25 02:46:15;;;;;;;;;;;;;;;5.72;87.53;99104.03;1693513;84;20695;-71
2021/01/25 02:48:43;;;;;;;;;;;;;;;5.73;87.51;99103.91;1693887;84;20226;-71
2021/01/25 02:51:12;;;;;;;;;;;;;;;5.74;87.52;99101.64;1694013;84;24232;-71
2021/01/25 02:53:39;;;;;;;;;;;;;;;5.75;87.51;99102.47;1688042;84;22042;-71
2021/01/25 02:56:07;;;;;;;;;;;;;;;5.75;87.47;99104.61;1686314;84;20246;-71
2021/01/25 02:58:35;;;;;;;;;;;;;;;5.77;87.46;99103.17;1676236;83;20750;-71
2021/01/25 03:01:03;;;;;;;;;;;;;;;5.78;87.45;99110.55;1689895;84;20241;-71
2021/01/25 03:03:31;;;;;;;;;;;;;;;5.79;87.37;99110.91;1693381;84;21973;-71
2021/01/25 03:05:58;;;;;;;;;;;;;;;5.78;87.33;99104.00;1693191;83;20376;-71
2021/01/25 03:08:25;;;;;;;;;;;;;;;5.78;87.22;99099.59;1692979;84;20237;-72
2021/01/25 03:10:55;;;;;;;;;;;;;;;5.81;87.16;99093.30;1692934;84;20686;-71
2021/01/25 03:13:26;;;;;;;;;;;;;;;5.81;87.05;99088.89;1692345;84;20227;-70
2021/01/25 03:15:56;;;;;;;;;;;;;;;5.81;86.98;99095.44;1692478;84;22083;-71
2021/01/25 03:18:26;;;;;;;;;;;;;;;5.81;86.93;99094.61;1693838;84;20245;-71
2021/01/25 03:20:54;;;;;;;;;;;;;;;5.80;86.89;99095.56;1693511;84;20245;-71
2021/01/25 03:23:22;;;;;;;;;;;;;;;5.80;86.84;99092.47;1693804;84;20703;-71
2021/01/25 03:25:51;;;;;;;;;;;;;;;5.79;86.82;99093.87;1693834;84;20242;-72
2021/01/25 03:28:18;;;;;;;;;;;;;;;5.77;86.79;99093.17;1676078;83;22092;-71
2021/01/25 03:30:46;;;;;;;;;;;;;;;5.76;86.78;99088.41;1682322;84;20236;-71
2021/01/25 03:33:13;;;;;;;;;;;;;;;5.75;86.75;99094.61;1693590;84;20250;-71
2021/01/25 03:35:40;;;;;;;;;;;;;;;5.76;86.72;99089.72;1690242;84;20548;-70
2021/01/25 03:38:08;;;;;;;;;;;;;;;5.75;86.67;99092.82;1687452;85;20234;-71
2021/01/25 03:40:35;;;;;;;;;;;;;;;5.75;86.64;99094.61;1687145;85;24303;-71
2021/01/25 03:43:03;;;;;;;;;;;;;;;5.74;86.54;99083.30;1687216;85;20238;-71
2021/01/25 03:45:30;;;;;;;;;;;;;;;5.75;86.46;99084.95;1675376;85;20236;-71
2021/01/25 03:47:57;;;;;;;;;;;;;;;5.77;86.40;99089.23;1662834;86;20549;-71
2021/01/25 03:50:25;;;;;;;;;;;;;;;5.76;86.35;99085.79;1674952;85;20283;-71
2021/01/25 03:52:53;;;;;;;;;;;;;;;5.75;86.29;99094.13;1675010;85;22089;-71
2021/01/25 03:55:20;;;;;;;;;;;;;;;5.76;86.23;99094.96;1654041;84;20238;-71
2021/01/25 03:57:48;;;;;;;;;;;;;;;5.73;86.15;99086.87;1674105;84;20327;-71
2021/01/25 04:00:17;;;;;;;;;;;;;;;5.72;86.05;99091.77;1650198;85;20551;-71
2021/01/25 04:02:44;;;;;;;;;;;;;;;5.72;85.97;99089.14;1673342;85;20379;-71
2021/01/25 04:05:13;;;;;;;;;;;;;;;5.70;85.91;99089.75;1675144;85;21903;-71
2021/01/25 04:07:40;;;;;;;;;;;;;;;5.69;85.86;99088.53;1674992;85;20550;-71
2021/01/25 04:10:09;;;;;;;;;;;;;;;5.67;85.74;99088.66;1674303;85;20236;-71
2021/01/25 04:12:37;;;;;;;;;;;;;;;5.67;85.68;99095.69;1692648;84;20606;-71
2021/01/25 04:15:06;;;;;;;;;;;;;;;5.66;85.62;99093.55;1675130;85;20236;-71
2021/01/25 04:17:34;;;;;;;;;;;;;;;5.65;85.55;99089.75;1675106;85;22077;-71
2021/01/25 04:20:03;;;;;;;;;;;;;;;5.63;85.46;99084.64;1662540;85;20404;-71
2021/01/25 04:22:32;;;;;;;;;;;;;;;5.62;85.33;99090.00;1670333;85;20248;-71
2021/01/25 04:25:01;;;;;;;;;;;;;;;5.61;85.24;99082.62;1675051;85;20702;-71
2021/01/25 04:27:28;;;;;;;;;;;;;;;5.61;85.12;99081.80;1675112;85;20276;-71
2021/01/25 04:29:55;;;;;;;;;;;;;;;5.61;85.06;99076.08;1670083;85;22093;-71
2021/01/25 04:32:25;;;;;;;;;;;;;;;5.60;84.99;99079.66;1674365;85;20377;-71
2021/01/25 04:34:53;;;;;;;;;;;;;;;5.60;84.93;99071.80;1675018;85;20531;-71
2021/01/25 04:37:20;;;;;;;;;;;;;;;5.58;84.77;99077.61;1645478;86;20551;-71
2021/01/25 04:39:51;;;;;;;;;;;;;;;5.58;84.72;99078.09;1655017;86;20221;-71
2021/01/25 04:42:19;;;;;;;;;;;;;;;5.58;84.64;99078.91;1669524;86;21905;-72
2021/01/25 04:44:46;;;;;;;;;;;;;;;5.57;84.58;99074.63;1666063;85;22626;-70
2021/01/25 04:47:13;;;;;;;;;;;;;;;5.57;84.54;99076.42;1653235;86;20237;-69
2021/01/25 04:49:44;;;;;;;;;;;;;;;5.55;84.48;99084.41;1670383;86;20233;-67
2021/01/25 04:52:12;;;;;;;;;;;;;;;5.55;84.47;99092.27;1669932;86;20221;-68
2021/01/25 04:54:39;;;;;;;;;;;;;;;5.53;84.45;99094.18;1662972;86;21904;-68
2021/01/25 04:57:06;;;;;;;;;;;;;;;5.52;84.42;99086.45;1663311;85;20416;-68
2021/01/25 04:59:34;;;;;;;;;;;;;;;5.51;84.37;99092.16;1664938;86;20228;-69
2021/01/25 05:02:03;;;;;;;;;;;;;;;5.50;84.37;99093.13;1663672;86;20546;-71
2021/01/25 05:04:32;;;;;;;;;;;;;;;5.48;84.33;99102.86;1663975;86;20215;-72
2021/01/25 05:07:00;;;;;;;;;;;;;;;5.48;84.31;99097.62;1624634;87;21297;-71
2021/01/25 05:09:28;;;;;;;;;;;;;;;5.48;84.26;99096.31;1668349;85;20379;-72
2021/01/25 05:11:59;;;;;;;;;;;;;;;5.47;84.20;99095.96;1639940;87;20248;-72
2021/01/25 05:14:39;;;;;;;;;;;;;;;5.48;84.13;99102.86;1642290;86;21592;-72
2021/01/25 05:17:08;;;;;;;;;;;;;;;5.49;84.08;99100.59;1650025;86;20245;-71
2021/01/25 05:19:39;;;;;;;;;;;;;;;5.50;84.02;99107.52;1643369;86;22033;-71
2021/01/25 05:22:19;;;;;;;;;;;;;;;5.54;83.97;99109.41;1891388;76;20175;-70
2021/01/25 05:24:50;;;;;;;;;;;;;;;5.51;83.96;99117.05;1851521;77;20547;-69
2021/01/25 05:27:23;;;;;;;;;;;;;;;5.52;83.95;99112.16;1816945;77;21901;-68
2021/01/25 05:29:51;;;;;;;;;;;;;;;5.53;83.97;99113.82;1825678;77;20421;-69
2021/01/25 05:32:19;;;;;;;;;;;;;;;5.52;83.82;99117.39;1849251;77;20252;-69
2021/01/25 05:34:47;;;;;;;;;;;;;;;5.55;83.73;99117.63;1851686;77;20777;-70
2021/01/25 05:37:16;;;;;;;;;;;;;;;5.55;83.62;99115.84;1851405;77;20516;-72
2021/01/25 05:39:46;;;;;;;;;;;;;;;5.55;83.55;99117.63;1852322;76;22928;-70
2021/01/25 05:42:14;;;;;;;;;;;;;;;5.56;83.48;99120.12;1852422;77;21416;-70
2021/01/25 05:44:42;;;;;;;;;;;;;;;5.56;83.47;99110.95;1850380;77;20527;-70
2021/01/25 05:47:10;;;;;;;;;;;;;;;5.55;83.40;99114.53;1833336;77;20221;-68
2021/01/25 05:49:38;;;;;;;;;;;;;;;5.55;83.34;99112.39;1852511;77;20241;-70
2021/01/25 05:52:06;;;;;;;;;;;;;;;5.53;83.26;99109.06;1851621;77;21885;-71
2021/01/25 05:54:34;;;;;;;;;;;;;;;5.52;83.18;99109.54;1852448;77;20213;-72
2021/01/25 05:57:02;;;;;;;;;;;;;;;5.50;83.07;99114.07;1836815;77;20258;-71
2021/01/25 05:59:30;;;;;;;;;;;;;;;5.46;82.96;99107.39;1818510;79;20508;-71
2021/01/25 06:01:57;;;;;;;;;;;;;;;5.45;82.91;99115.72;1841183;77;20725;-72
2021/01/25 06:04:25;;;;;;;;;;;;;;;5.44;82.86;99106.20;1850703;77;22138;-71
2021/01/25 06:07:08;;;;;;;;;;;;;;;5.43;82.77;99116.81;1846159;77;20450;-72
2021/01/25 06:09:42;;;;;;;;;;;;;;;5.39;82.72;99107.51;1852482;77;20352;-71
2021/01/25 06:12:10;;;;;;;;;;;;;;;5.36;82.65;99106.45;1852444;77;20218;-72
2021/01/25 06:14:40;;;;;;;;;;;;;;;5.34;82.55;99098.72;1852509;77;20258;-71
2021/01/25 06:17:07;;;;;;;;;;;;;;;5.34;82.57;99115.73;1852417;77;22061;-71
2021/01/25 06:19:35;;;;;;;;;;;;;;;5.33;82.47;99113.23;1850203;77;20222;-71
2021/01/25 06:22:03;;;;;;;;;;;;;;;5.31;82.42;99126.94;1851490;77;20210;-71
2021/01/25 06:24:31;;;;;;;;;;;;;;;5.29;82.37;99128.34;1852482;77;20218;-72
2021/01/25 06:27:00;;;;;;;;;;;;;;;5.28;82.31;99130.60;1851237;77;20488;-71
2021/01/25 06:29:30;;;;;;;;;;;;;;;5.26;82.31;99132.51;1852389;77;22056;-71
2021/01/25 06:32:00;;;;;;;;;;;;;;;5.24;82.26;99135.73;1852175;77;21086;-71
2021/01/25 06:34:28;;;;;;;;;;;;;;;5.25;82.23;99140.48;1851879;77;20217;-71
2021/01/25 06:36:56;;;;;;;;;;;;;;;5.24;82.23;99138.82;1849515;77;20329;-72
2021/01/25 06:39:26;;;;;;;;;;;;;;;5.23;82.25;99128.00;1851887;77;20237;-72
2021/01/25 06:42:04;;;;;;;;;;;;;;;5.22;82.26;99133.70;1851339;77;21911;-71
2021/01/25 06:44:33;;;;;;;;;;;;;;;5.22;82.29;99128.95;1851972;77;21138;-71
2021/01/25 06:47:03;;;;;;;;;;;;;;;5.21;82.33;99120.72;1851247;77;20253;-72
2021/01/25 06:49:31;;;;;;;;;;;;;;;5.22;82.37;99128.95;1840033;77;20958;-67
2021/01/25 06:51:59;;;;;;;;;;;;;;;5.22;82.38;99124.55;1851973;77;20202;-68
2021/01/25 06:54:26;;;;;;;;;;;;;;;5.24;82.43;99122.64;1825247;77;23040;-67
2021/01/25 06:56:58;;;;;;;;;;;;;;;5.26;82.47;99123.83;1839797;77;20392;-68
2021/01/25 06:59:28;;;;;;;;;;;;;;;5.27;82.54;99119.77;1851805;77;20226;-69
2021/01/25 07:01:55;;;;;;;;;;;;;;;5.28;82.61;99116.68;1841015;77;20204;-72
2021/01/25 07:04:25;;;;;;;;;;;;;;;5.30;82.69;99110.84;1833625;76;20210;-69
2021/01/25 07:06:54;;;;;;;;;;;;;;;5.32;82.77;99105.87;1806002;78;22792;-69
2021/01/25 07:09:31;;;;;;;;;;;;;;;5.34;82.84;99105.74;1806661;77;20214;-70
2021/01/25 07:12:01;;;;;;;;;;;;;;;5.39;82.92;99114.88;1823957;77;20213;-69
2021/01/25 07:14:29;;;;;;;;;;;;;;;5.42;83.04;99114.67;1805883;78;20243;-69
2021/01/25 07:16:57;;;;;;;;;;;;;;;5.46;83.09;99114.77;1846285;77;20707;-70
2021/01/25 07:19:26;;;;;;;;;;;;;;;5.51;83.11;99105.73;1845746;77;22789;-69
2021/01/25 07:21:54;;;;;;;;;;;;;;;5.55;83.13;99106.67;1822828;78;20429;-69
2021/01/25 07:24:26;;;;;;;;;;;;;;;5.57;83.13;99093.45;1813235;78;20214;-69
2021/01/25 07:26:56;;;;;;;;;;;;;;;5.59;83.14;99091.53;1844600;76;22225;-69
2021/01/25 07:29:24;;;;;;;;;;;;;;;5.62;83.10;99100.00;1835841;77;20274;-69
2021/01/25 07:31:52;;;;;;;;;;;;;;;5.63;83.08;99099.52;1851903;77;22065;-69
2021/01/25 07:34:20;;;;;;;;;;;;;;;5.63;83.08;99091.19;1849232;77;20447;-70
2021/01/25 07:36:47;;;;;;;;;;;;;;;5.66;83.12;99090.09;1817758;77;20278;-69
2021/01/25 07:39:17;;;;;;;;;;;;;;;5.69;83.14;99097.70;1817835;79;20248;-67
2021/01/25 07:41:46;;;;;;;;;;;;;;;5.69;83.16;99097.26;1818018;79;20413;-68
2021/01/25 07:44:14;;;;;;;;;;;;;;;5.70;83.19;99105.47;1822087;77;22036;-69
2021/01/25 07:46:44;;;;;;;;;;;;;;;5.70;83.24;99100.23;1805760;78;20234;-69
2021/01/25 07:49:13;;;;;;;;;;;;;;;5.71;83.27;99102.37;1833318;75;20227;-69
2021/01/25 07:51:41;;;;;;;;;;;;;;;5.72;83.31;99101.41;1878994;75;20478;-68
2021/01/25 07:54:15;;;;;;;;;;;;;;;5.72;83.33;99100.94;1823937;78;20226;-67
2021/01/25 07:56:43;;;;;;;;;;;;;;;5.74;83.40;99094.25;1844397;77;22115;-66
2021/01/25 07:59:19;;;;;;;;;;;;;;;5.74;83.45;99092.47;1814350;79;21231;-66
2021/01/25 08:01:56;;;;;;;;;;;;;;;5.75;83.52;99094.13;1846189;77;20239;-67
2021/01/25 08:04:27;;;;;;;;;;;;;;;5.76;83.55;99084.48;1806965;79;20228;-67
2021/01/25 08:06:56;;;;;;;;;;;;;;;5.79;83.60;99088.64;1766800;80;20235;-67
2021/01/25 08:09:24;;;;;;;;;;;;;;;5.81;83.64;99096.75;1817469;79;22088;-67
2021/01/25 08:11:52;;;;;;;;;;;;;;;5.82;83.69;99089.72;1802195;79;20393;-67
2021/01/25 08:14:31;;;;;;;;;;;;;;;5.82;83.73;99087.93;1757609;80;20218;-67
2021/01/25 08:17:06;;;;;;;;;;;;;;;5.84;83.74;99087.80;1809015;79;20237;-67
2021/01/25 08:19:58;;;;;;;;;;;;;;;5.85;83.76;99083.75;1808695;79;20213;-67
2021/01/25 08:22:51;;;;;;;;;;;;;;;5.87;83.77;99074.45;1809251;78;21887;-67
2021/01/25 08:25:20;;;;;;;;;;;;;;;5.90;83.79;99072.46;1777153;80;20335;-67
2021/01/25 08:28:00;;;;;;;;;;;;;;;5.94;83.78;99067.80;1757124;81;20256;-68
2021/01/25 08:30:37;;;;;;;;;;;;;;;5.97;83.79;99057.88;1794676;79;22574;-67
2021/01/25 08:33:06;;;;;;;;;;;;;;;6.01;83.77;99053.24;1795178;80;20242;-67
2021/01/25 08:35:52;;;;;;;;;;;;;;;6.03;83.70;99051.32;1776820;80;22011;-67
2021/01/25 08:38:26;;;;;;;;;;;;;;;6.05;83.65;99046.77;1764682;80;20389;-68
2021/01/25 08:40:57;;;;;;;;;;;;;;;6.08;83.62;99049.62;1793938;80;20222;-67
2021/01/25 08:43:26;;;;;;;;;;;;;;;6.09;83.55;99048.69;1794342;80;20500;-67
2021/01/25 08:45:56;;;;;;;;;;;;;;;6.09;83.46;99052.14;1766713;80;20305;-68
2021/01/25 08:48:26;;;;;;;;;;;;;;;6.10;83.40;99045.94;1795176;80;21985;-69
2021/01/25 08:50:54;;;;;;;;;;;;;;;6.12;83.30;99051.88;1795048;80;20222;-68
2021/01/25 08:53:29;;;;;;;;;;;;;;;6.12;83.17;99049.26;1792090;80;20223;-67
2021/01/25 08:55:57;;;;;;;;;;;;;;;6.12;82.98;99050.57;1794329;79;20246;-68
2021/01/25 08:58:29;;;;;;;;;;;;;;;6.14;82.84;99039.95;1795061;80;20213;-68
2021/01/25 09:00:58;;;;;;;;;;;;;;;6.15;82.77;99045.06;1792919;80;22063;-68
2021/01/25 09:03:25;;;;;;;;;;;;;;;6.19;82.71;99039.11;1790556;79;20226;-69
2021/01/25 09:05:54;;;;;;;;;;;;;;;6.23;82.61;99037.88;1794802;79;20218;-69
2021/01/25 09:08:24;;;;;;;;;;;;;;;6.22;82.39;99029.19;1793590;80;20246;-69
2021/01/25 09:10:53;;;;;;;;;;;;;;;6.16;82.12;99028.38;1794070;80;20222;-68
2021/01/25 09:13:20;;;;;;;;;;;;;;;6.09;81.90;99027.23;1764687;80;21849;-68
2021/01/25 09:15:49;;;;;;;;;;;;;;;6.02;81.78;99019.52;1764757;80;20225;-69
2021/01/25 09:18:16;;;;;;;;;;;;;;;6.01;81.77;99013.45;1763886;80;20510;-68
2021/01/25 09:20:44;;;;;;;;;;;;;;;6.05;81.76;99007.94;1774923;80;20238;-68
2021/01/25 09:23:11;;;;;;;;;;;;;;;6.09;81.75;99002.34;1784939;80;20218;-69
2021/01/25 09:25:38;;;;;;;;;;;;;;;6.15;81.70;98995.25;1782085;80;21792;-69
2021/01/25 09:28:06;;;;;;;;;;;;;;;6.15;81.43;99012.30;1782508;80;22603;-69
2021/01/25 09:30:33;;;;;;;;;;;;;;;6.12;81.25;99011.73;1787059;79;20208;-70
2021/01/25 09:33:01;;;;;;;;;;;;;;;6.09;81.01;99015.44;1783973;79;20467;-69
2021/01/25 09:35:29;;;;;;;;;;;;;;;5.98;80.71;99007.16;1769119;79;20220;-70
2021/01/25 09:37:56;;;;;;;;;;;;;;;5.87;80.53;98999.77;1783715;80;22069;-68
2021/01/25 09:40:24;;;;;;;;;;;;;;;5.82;80.51;99000.16;1769904;80;20287;-69
2021/01/25 09:42:52;;;;;;;;;;;;;;;5.83;80.55;98994.44;1761082;80;20239;-70
2021/01/25 09:45:20;;;;;;;;;;;;;;;5.84;80.53;98994.78;1783118;80;20481;-70
2021/01/25 09:47:48;;;;;;;;;;;;;;;5.82;80.47;98992.30;1783549;79;20402;-69
2021/01/25 09:50:16;;;;;;;;;;;;;;;5.81;80.44;98985.39;1779953;80;21904;-69
2021/01/25 09:52:45;;;;;;;;;;;;;;;5.82;80.47;98977.05;1783284;80;21276;-68
2021/01/25 09:55:14;;;;;;;;;;;;;;;5.83;80.59;98967.75;1795057;79;20226;-71
2021/01/25 09:57:41;;;;;;;;;;;;;;;5.87;80.84;98961.77;1770920;79;20477;-68
2021/01/25 10:00:11;;;;;;;;;;;;;;;5.94;81.05;98958.55;1779856;79;20385;-68
2021/01/25 10:02:38;;;;;;;;;;;;;;;6.05;81.20;98962.91;1776301;80;22069;-68
2021/01/25 10:05:07;;;;;;;;;;;;;;;6.15;81.25;98954.62;1783013;80;20226;-70
2021/01/25 10:07:35;;;;;;;;;;;;;;;6.21;81.15;98952.81;1776958;80;20424;-67
2021/01/25 10:10:05;;;;;;;;;;;;;;;6.29;81.24;98942.98;1772320;80;20281;-68
2021/01/25 10:12:33;;;;;;;;;;;;;;;6.37;81.25;98943.63;1773397;80;20223;-71
2021/01/25 10:15:01;;;;;;;;;;;;;;;6.42;81.22;98938.84;1774549;79;22968;-68
2021/01/25 10:17:29;;;;;;;;;;;;;;;6.46;81.17;98936.29;1777494;80;20277;-68
2021/01/25 10:19:57;;;;;;;;;;;;;;;6.49;81.16;98922.45;1783196;80;20262;-67
2021/01/25 10:22:24;;;;;;;;;;;;;;;6.52;81.10;98927.43;1787348;80;20854;-67
2021/01/25 10:24:52;;;;;;;;;;;;;;;6.54;81.05;98911.55;1794805;80;20250;-65
2021/01/25 10:27:19;;;;;;;;;;;;;;;6.55;80.96;98913.20;1795214;80;22239;-67
2021/01/25 10:29:49;;;;;;;;;;;;;;;6.54;80.92;98899.75;1795103;80;20226;-66
2021/01/25 10:32:17;;;;;;;;;;;;;;;6.52;80.94;98906.92;1795360;80;20233;-66
2021/01/25 10:34:45;;;;;;;;;;;;;;;6.52;81.07;98913.00;1774238;80;20386;-67
2021/01/25 10:37:13;;;;;;;;;;;;;;;6.53;80.91;98896.30;1763937;80;20267;-67
2021/01/25 10:39:41;;;;;;;;;;;;;;;6.49;80.85;98890.15;1763909;80;22072;-66
2021/01/25 10:42:09;;;;;;;;;;;;;;;6.47;80.89;98869.79;1763787;81;20223;-68
2021/01/25 10:44:37;;;;;;;;;;;;;;;6.47;80.86;98856.67;1763906;81;20226;-67
2021/01/25 10:47:04;;;;;;;;;;;;;;;6.45;80.75;98855.95;1763867;81;20459;-68
2021/01/25 10:49:32;;;;;;;;;;;;;;;6.42;80.64;98864.09;1763913;81;20215;-68
2021/01/25 10:51:59;;;;;;;;;;;;;;;6.36;80.53;98864.61;1786956;80;23040;-68
2021/01/25 10:54:27;;;;;;;;;;;;;;;6.30;80.47;98858.95;1793536;80;20472;-67
2021/01/25 10:56:54;;;;;;;;;;;;;;;6.26;80.54;98852.29;1793534;80;20238;-67
2021/01/25 10:59:22;;;;;;;;;;;;;;;6.25;80.50;98848.02;1793547;80;20314;-66
2021/01/25 11:01:49;;;;;;;;;;;;;;;6.22;80.50;98848.77;1793550;80;20504;-68
2021/01/25 11:04:17;;;;;;;;;;;;;;;6.15;80.49;98847.14;1793530;80;22065;-69
2021/01/25 11:06:49;;;;;;;;;;;;;;;6.08;80.49;98856.51;1793496;80;20316;-68
2021/01/25 11:09:17;;;;;;;;;;;;;;;6.00;80.51;98840.12;1767511;80;20272;-69
2021/01/25 11:11:45;;;;;;;;;;;;;;;5.97;80.55;98836.91;1763798;80;20476;-68
2021/01/25 11:14:13;;;;;;;;;;;;;;;5.93;80.54;98832.41;1777218;80;20219;-68
2021/01/25 11:16:41;;;;;;;;;;;;;;;5.87;80.54;98828.13;1777206;80;21803;-67
2021/01/25 11:19:10;;;;;;;;;;;;;;;5.81;80.57;98828.67;1777154;80;20210;-66
2021/01/25 11:21:38;;;;;;;;;;;;;;;5.74;80.63;98827.04;1777163;80;20449;-67
2021/01/25 11:24:07;;;;;;;;;;;;;;;5.70;80.71;98827.79;1780346;79;21999;-68
2021/01/25 11:26:38;;;;;;;;;;;;;;;5.67;80.79;98823.27;1774594;79;20477;-68
2021/01/25 11:29:06;;;;;;;;;;;;;;;5.64;80.87;98816.50;1814786;79;21890;-66
2021/01/25 11:31:34;;;;;;;;;;;;;;;5.63;80.93;98814.84;1814799;79;21267;-66
2021/01/25 11:34:01;;;;;;;;;;;;;;;5.61;80.95;98805.47;1814757;79;20226;-67
2021/01/25 11:36:29;;;;;;;;;;;;;;;5.59;81.09;98793.78;1814677;79;20551;-68
2021/01/25 11:38:57;;;;;;;;;;;;;;;5.59;81.19;98787.72;1814716;79;20493;-69
2021/01/25 11:41:24;;;;;;;;;;;;;;;5.59;81.32;98775.45;1809412;79;22058;-67
2021/01/25 11:43:52;;;;;;;;;;;;;;;5.61;81.41;98783.20;1763807;81;20238;-67
2021/01/25 11:46:20;;;;;;;;;;;;;;;5.60;81.51;98771.90;1763823;81;20225;-67
2021/01/25 11:48:48;;;;;;;;;;;;;;;5.61;81.68;98768.80;1763808;81;20321;-67
2021/01/25 11:51:15;;;;;;;;;;;;;;;5.62;81.89;98769.97;1763860;81;20218;-68
2021/01/25 11:53:42;;;;;;;;;;;;;;;5.65;82.02;98778.87;1763834;81;21889;-68
2021/01/25 11:56:09;;;;;;;;;;;;;;;5.66;82.13;98768.73;1763798;81;20403;-67
2021/01/25 11:58:37;;;;;;;;;;;;;;;5.64;82.16;98773.28;1765525;79;20492;-66
2021/01/25 12:01:04;;;;;;;;;;;;;;;5.62;82.20;98782.23;1763799;81;20265;-67
2021/01/25 12:03:32;;;;;;;;;;;;;;;5.61;82.23;98770.11;1763766;80;20214;-67
2021/01/25 12:06:00;;;;;;;;;;;;;;;5.59;82.27;98768.07;1763901;81;22788;-68
2021/01/25 12:08:28;;;;;;;;;;;;;;;5.57;82.32;98755.11;1791480;79;20493;-67
2021/01/25 12:10:57;;;;;;;;;;;;;;;5.54;82.33;98757.17;1812141;79;20239;-67
2021/01/25 12:13:24;;;;;;;;;;;;;;;5.50;82.37;98759.67;1812120;79;20459;-67
2021/01/25 12:15:52;;;;;;;;;;;;;;;5.48;82.39;98751.13;1797940;79;20242;-68
2021/01/25 12:18:37;;;;;;;;;;;;;;;5.43;82.38;98757.59;1763946;81;22039;-67
2021/01/25 12:21:04;;;;;;;;;;;;;;;5.38;82.44;98751.07;1763837;81;20225;-66
2021/01/25 12:23:33;;;;;;;;;;;;;;;5.35;82.44;98756.58;1763705;81;20218;-65
2021/01/25 12:26:00;;;;;;;;;;;;;;;5.29;82.48;98751.36;1744818;82;20317;-65
2021/01/25 12:28:28;;;;;;;;;;;;;;;5.26;82.56;98741.63;1744788;82;20269;-66
2021/01/25 12:30:56;;;;;;;;;;;;;;;5.21;82.56;98752.95;1744857;82;21819;-65
2021/01/25 12:33:24;;;;;;;;;;;;;;;5.16;82.65;98741.09;1745916;80;20222;-65
2021/01/25 12:35:51;;;;;;;;;;;;;;;5.16;82.81;98748.11;1744821;82;20217;-65
2021/01/25 12:38:18;;;;;;;;;;;;;;;5.17;82.95;98738.82;1744757;82;20473;-65
2021/01/25 12:40:46;;;;;;;;;;;;;;;5.22;83.12;98736.32;1744832;82;20511;-65
2021/01/25 12:43:13;;;;;;;;;;;;;;;5.29;83.31;98742.67;1744766;82;21844;-65
2021/01/25 12:45:40;;;;;;;;;;;;;;;5.35;83.44;98740.39;1744777;82;21231;-65
2021/01/25 12:48:08;;;;;;;;;;;;;;;5.41;83.55;98735.13;1744819;82;20300;-65
2021/01/25 12:50:35;;;;;;;;;;;;;;;5.46;83.64;98730.31;1766171;80;20532;-65
2021/01/25 12:53:03;;;;;;;;;;;;;;;5.53;83.74;98723.61;1785521;80;20232;-65
2021/01/25 12:55:30;;;;;;;;;;;;;;;5.58;83.80;98727.13;1780930;80;22068;-65
2021/01/25 12:57:58;;;;;;;;;;;;;;;5.61;83.80;98721.17;1785459;80;21250;-66
2021/01/25 13:00:28;;;;;;;;;;;;;;;5.63;83.82;98724.48;1780968;80;20216;-65
2021/01/25 13:02:56;;;;;;;;;;;;;;;5.63;83.81;98713.17;1785347;80;20463;-66
2021/01/25 13:05:23;;;;;;;;;;;;;;;5.61;83.80;98719.03;1780993;80;20243;-64